LFPO/ORY METAR and TAF weather

Enter ICAO airport designator
Station Type Date Time Source
LFPO METAR 2020/09/20 14:30 UTC NOAA

LFPO 201430Z VRB02KT CAVOK 27/15 Q1014 NOSIG


Station Type Date Time Source
LFPO Decoded METAR 2020/09/20 14:30 UTC NOAA

Paris-Orly, France (LFPO) 48-44N 002-24E 96M
Sep 20, 2020 - 10:30 AM EDT / 2020.09.20 1430 UTC
Wind: Variable at 2 MPH (2 KT):0
Visibility: greater than 7 mile(s):0
Temperature: 80 F (27 C)
Dew Point: 59 F (15 C)
Relative Humidity: 47%
Pressure (altimeter): 29.94 in. Hg (1014 hPa)
ob: LFPO 201430Z VRB02KT CAVOK 27/15 Q1014 NOSIG
cycle: 14

Station Type Date Time Source
LFPO TAF 2020/09/20 12:21 UTC NOAA

TAF LFPO 201100Z 2012/2118 05004KT CAVOK

Example: see airport list